Time;durP1;ratioP1;P1;durP2;ratioP2;P2;SDS_P1;SDS_P2;PMS_P1;PMS_P2;Temp;Humidity;BMP_temperature;BMP_pressure;BME280_temperature;BME280_humidity;BME280_pressure;Samples;Min_cycle;Max_cycle;Signal;HPM_P1;HPM_P2
2022/07/18 00:00:48;;;;;;;0.20;0.20;;;;;;;;;;5056074;28;20079;-77
2022/07/18 00:03:13;;;;;;;0.20;0.20;;;;;;;;;;5056014;28;20074;-76
2022/07/18 00:05:39;;;;;;;0.30;0.30;;;;;;;;;;5055015;28;20024;-76
2022/07/18 00:08:04;;;;;;;0.20;0.20;;;;;;;;;;5055899;28;20388;-76
2022/07/18 00:10:30;;;;;;;0.20;0.20;;;;;;;;;;5055814;28;20025;-77
2022/07/18 00:12:55;;;;;;;0.63;0.63;;;;;;;;;;5053485;28;20419;-77
2022/07/18 00:15:21;;;;;;;0.20;0.20;;;;;;;;;;5056133;28;20100;-76
2022/07/18 00:17:46;;;;;;;0.20;0.20;;;;;;;;;;5055679;28;20537;-74
2022/07/18 00:20:12;;;;;;;0.22;0.22;;;;;;;;;;5054395;28;20025;-76
2022/07/18 00:22:37;;;;;;;0.20;0.20;;;;;;;;;;5055681;28;20045;-76
2022/07/18 00:25:03;;;;;;;0.32;0.32;;;;;;;;;;5055510;28;20033;-76
2022/07/18 00:27:28;;;;;;;0.20;0.20;;;;;;;;;;5054200;28;20025;-76
2022/07/18 00:29:54;;;;;;;0.20;0.20;;;;;;;;;;5055506;28;20407;-76
2022/07/18 00:32:19;;;;;;;0.20;0.20;;;;;;;;;;5055725;28;20047;-76
2022/07/18 00:34:45;;;;;;;0.20;0.20;;;;;;;;;;5055608;28;20032;-76
2022/07/18 00:37:10;;;;;;;0.25;0.25;;;;;;;;;;5055452;28;20017;-77
2022/07/18 00:39:36;;;;;;;0.30;0.30;;;;;;;;;;5053480;28;20033;-78
2022/07/18 00:42:01;;;;;;;0.20;0.20;;;;;;;;;;5055230;28;20025;-76
2022/07/18 00:44:28;;;;;;;0.20;0.20;;;;;;;;;;5055464;28;20033;-77
2022/07/18 00:46:55;;;;;;;0.20;0.20;;;;;;;;;;5055028;28;20067;-78
2022/07/18 00:49:21;;;;;;;0.20;0.20;;;;;;;;;;5055319;28;20129;-77
2022/07/18 00:51:46;;;;;;;0.20;0.20;;;;;;;;;;5055262;28;20519;-77
2022/07/18 00:54:12;;;;;;;0.20;0.20;;;;;;;;;;5037407;28;20025;-77
2022/07/18 00:56:38;;;;;;;0.20;0.20;;;;;;;;;;5055335;28;20357;-77
2022/07/18 00:59:03;;;;;;;0.57;0.57;;;;;;;;;;5055057;28;20426;-76
2022/07/18 01:01:45;;;;;;;0.20;0.20;;;;;;;;;;5055064;28;20464;-76
2022/07/18 01:04:12;;;;;;;0.22;0.22;;;;;;;;;;5055029;28;20377;-76
2022/07/18 01:06:38;;;;;;;0.30;0.30;;;;;;;;;;5055031;28;20438;-77
2022/07/18 01:09:03;;;;;;;0.40;0.40;;;;;;;;;;5053570;28;20025;-77
2022/07/18 01:11:28;;;;;;;0.20;0.20;;;;;;;;;;5054864;28;20125;-78
2022/07/18 01:13:54;;;;;;;0.20;0.20;;;;;;;;;;5055060;28;20032;-78
2022/07/18 01:16:20;;;;;;;0.30;0.30;;;;;;;;;;5054585;28;20094;-78
2022/07/18 01:18:46;;;;;;;0.30;0.30;;;;;;;;;;5053482;28;20025;-77
2022/07/18 01:21:12;;;;;;;0.20;0.20;;;;;;;;;;5054572;28;20048;-77
2022/07/18 01:23:37;;;;;;;0.22;0.22;;;;;;;;;;5054057;28;20036;-76
2022/07/18 01:26:03;;;;;;;0.30;0.30;;;;;;;;;;5042463;28;20524;-75
2022/07/18 01:28:28;;;;;;;0.20;0.20;;;;;;;;;;5054710;28;20484;-76
2022/07/18 01:30:54;;;;;;;0.20;0.20;;;;;;;;;;5053298;28;20037;-76
2022/07/18 01:33:19;;;;;;;0.22;0.22;;;;;;;;;;5052958;28;20060;-75
2022/07/18 01:35:45;;;;;;;9.30;8.65;;;;;;;;;;5054433;28;20128;-76
2022/07/18 01:38:11;;;;;;;0.20;0.20;;;;;;;;;;5054335;28;20460;-76
2022/07/18 01:40:36;;;;;;;0.20;0.20;;;;;;;;;;5054158;28;20021;-76
2022/07/18 01:43:02;;;;;;;0.28;0.28;;;;;;;;;;5052209;28;20051;-76
2022/07/18 01:45:27;;;;;;;0.30;0.30;;;;;;;;;;5050796;28;20031;-76
2022/07/18 01:47:53;;;;;;;0.30;0.30;;;;;;;;;;5052009;28;20447;-75
2022/07/18 01:50:18;;;;;;;0.20;0.20;;;;;;;;;;5052344;28;20029;-75
2022/07/18 01:52:44;;;;;;;0.20;0.20;;;;;;;;;;5052401;28;20033;-75
2022/07/18 01:55:09;;;;;;;0.20;0.20;;;;;;;;;;5053759;28;20017;-77
2022/07/18 01:57:36;;;;;;;0.20;0.20;;;;;;;;;;5053840;28;20130;-77
2022/07/18 02:00:02;;;;;;;0.20;0.20;;;;;;;;;;5054311;28;20060;-77
2022/07/18 02:02:30;;;;;;;0.30;0.30;;;;;;;;;;5053482;28;20036;-77
2022/07/18 02:05:01;;;;;;;0.30;0.30;;;;;;;;;;5053834;28;20041;-78
2022/07/18 02:07:27;;;;;;;0.30;0.30;;;;;;;;;;5053948;28;20036;-79
2022/07/18 02:09:53;;;;;;;0.22;0.22;;;;;;;;;;5052349;28;20029;-79
2022/07/18 02:12:18;;;;;;;0.40;0.40;;;;;;;;;;5053573;28;20036;-79
2022/07/18 02:14:44;;;;;;;0.20;0.20;;;;;;;;;;5052404;28;20029;-80
2022/07/18 02:17:10;;;;;;;0.20;0.20;;;;;;;;;;5053820;28;20036;-77
2022/07/18 02:19:35;;;;;;;0.20;0.20;;;;;;;;;;5054468;28;20080;-79
2022/07/18 02:22:01;;;;;;;0.20;0.20;;;;;;;;;;5052333;28;20539;-79
2022/07/18 02:24:26;;;;;;;0.20;0.20;;;;;;;;;;5053360;28;20384;-79
2022/07/18 02:26:52;;;;;;;0.20;0.20;;;;;;;;;;5035868;28;20029;-79
2022/07/18 02:29:18;;;;;;;0.28;0.28;;;;;;;;;;5052432;28;20060;-79
2022/07/18 02:31:43;;;;;;;0.20;0.20;;;;;;;;;;5051926;28;20048;-77
2022/07/18 02:34:12;;;;;;;0.20;0.20;;;;;;;;;;5053492;28;20455;-77
2022/07/18 02:36:41;;;;;;;0.20;0.20;;;;;;;;;;5053152;28;20087;-79
2022/07/18 02:39:07;;;;;;;0.20;0.20;;;;;;;;;;5053432;28;20263;-78
2022/07/18 02:41:33;;;;;;;0.20;0.20;;;;;;;;;;5053510;28;20051;-78
2022/07/18 02:43:58;;;;;;;0.20;0.20;;;;;;;;;;5052017;28;20063;-78
2022/07/18 02:46:24;;;;;;;0.20;0.20;;;;;;;;;;5053238;28;20392;-77
2022/07/18 02:48:50;;;;;;;0.20;0.20;;;;;;;;;;5053451;28;20032;-79
2022/07/18 02:51:15;;;;;;;0.20;0.20;;;;;;;;;;5053189;28;20553;-78
2022/07/18 02:53:41;;;;;;;0.28;0.28;;;;;;;;;;5053024;28;20034;-78
2022/07/18 02:56:06;;;;;;;0.20;0.20;;;;;;;;;;5053338;28;20036;-78
2022/07/18 02:58:32;;;;;;;0.20;0.20;;;;;;;;;;5053105;28;20116;-79
2022/07/18 03:00:57;;;;;;;0.20;0.20;;;;;;;;;;5053093;28;20029;-78
2022/07/18 03:03:23;;;;;;;0.35;0.35;;;;;;;;;;5048209;28;20128;-75
2022/07/18 03:05:48;;;;;;;0.20;0.20;;;;;;;;;;5049288;28;20037;-76
2022/07/18 03:08:14;;;;;;;0.20;0.20;;;;;;;;;;5049585;28;20029;-75
2022/07/18 03:10:39;;;;;;;0.20;0.20;;;;;;;;;;5049347;28;20017;-75
2022/07/18 03:13:05;;;;;;;0.20;0.20;;;;;;;;;;5048421;28;20032;-76
2022/07/18 03:15:30;;;;;;;0.35;0.35;;;;;;;;;;5047946;28;20446;-75
2022/07/18 03:17:56;;;;;;;0.28;0.28;;;;;;;;;;5048757;28;20036;-74
2022/07/18 03:20:21;;;;;;;0.20;0.20;;;;;;;;;;5048099;28;20053;-74
2022/07/18 03:22:46;;;;;;;0.20;0.20;;;;;;;;;;5048745;28;20076;-74
2022/07/18 03:25:12;;;;;;;0.20;0.20;;;;;;;;;;5047476;28;20116;-74
2022/07/18 03:27:37;;;;;;;0.90;0.88;;;;;;;;;;5048946;28;20063;-75
2022/07/18 03:30:03;;;;;;;0.20;0.20;;;;;;;;;;5048840;28;20125;-74
2022/07/18 03:32:29;;;;;;;0.20;0.20;;;;;;;;;;5047572;28;20480;-74
2022/07/18 03:34:54;;;;;;;1.02;0.98;;;;;;;;;;5047772;28;20052;-75
2022/07/18 03:37:19;;;;;;;0.20;0.20;;;;;;;;;;5048658;28;20033;-74
2022/07/18 03:39:45;;;;;;;0.22;0.22;;;;;;;;;;5048880;28;20391;-74
2022/07/18 03:42:10;;;;;;;0.40;0.40;;;;;;;;;;5047606;28;20021;-74
2022/07/18 03:44:36;;;;;;;0.20;0.20;;;;;;;;;;5047353;28;20084;-74
2022/07/18 03:47:01;;;;;;;0.20;0.20;;;;;;;;;;5049103;28;20033;-74
2022/07/18 03:49:27;;;;;;;0.25;0.25;;;;;;;;;;5052727;28;20079;-73
2022/07/18 03:51:55;;;;;;;0.20;0.20;;;;;;;;;;5053037;28;20025;-75
2022/07/18 03:54:21;;;;;;;0.20;0.20;;;;;;;;;;5052662;28;20029;-77
2022/07/18 03:56:46;;;;;;;0.28;0.28;;;;;;;;;;5052405;28;20036;-77
2022/07/18 03:59:12;;;;;;;0.20;0.20;;;;;;;;;;5052163;28;20046;-76
2022/07/18 04:01:38;;;;;;;0.55;0.55;;;;;;;;;;5052371;28;20082;-75
2022/07/18 04:04:03;;;;;;;0.20;0.20;;;;;;;;;;5052136;28;20041;-76
2022/07/18 04:06:29;;;;;;;0.20;0.20;;;;;;;;;;5052316;28;20033;-76
2022/07/18 04:08:54;;;;;;;0.30;0.30;;;;;;;;;;5052131;28;20017;-77
2022/07/18 04:11:23;;;;;;;0.30;0.30;;;;;;;;;;5051921;28;20380;-77
2022/07/18 04:13:52;;;;;;;0.20;0.20;;;;;;;;;;5050683;28;20116;-77
2022/07/18 04:16:18;;;;;;;0.20;0.20;;;;;;;;;;5052067;28;20427;-77
2022/07/18 04:18:44;;;;;;;0.30;0.30;;;;;;;;;;5050951;28;20033;-76
2022/07/18 04:21:09;;;;;;;0.20;0.20;;;;;;;;;;5050291;28;20086;-77
2022/07/18 04:23:35;;;;;;;0.90;0.85;;;;;;;;;;5051994;28;20033;-76
2022/07/18 04:26:01;;;;;;;0.95;0.95;;;;;;;;;;5052453;28;20035;-76
2022/07/18 04:28:26;;;;;;;0.45;0.45;;;;;;;;;;5034089;28;20021;-77
2022/07/18 04:30:52;;;;;;;0.20;0.20;;;;;;;;;;5052094;28;20383;-75
2022/07/18 04:33:17;;;;;;;0.20;0.20;;;;;;;;;;5050079;28;20080;-75
2022/07/18 04:35:43;;;;;;;0.20;0.20;;;;;;;;;;5051928;28;20025;-75
2022/07/18 04:38:09;;;;;;;0.40;0.40;;;;;;;;;;5051546;28;20483;-75
2022/07/18 04:40:35;;;;;;;0.20;0.20;;;;;;;;;;5051783;28;20027;-76
2022/07/18 04:43:01;;;;;;;0.20;0.20;;;;;;;;;;5051591;28;20028;-76
2022/07/18 04:45:27;;;;;;;0.20;0.20;;;;;;;;;;5051664;28;20020;-77
2022/07/18 04:47:53;;;;;;;0.20;0.20;;;;;;;;;;5051275;28;20365;-75
2022/07/18 04:50:19;;;;;;;0.20;0.20;;;;;;;;;;5049987;28;20029;-77
2022/07/18 04:52:45;;;;;;;0.20;0.20;;;;;;;;;;5051398;28;20042;-78
2022/07/18 04:55:11;;;;;;;0.20;0.20;;;;;;;;;;5051081;28;20040;-77
2022/07/18 04:57:37;;;;;;;3.92;2.38;;;;;;;;;;5051868;28;20033;-77
2022/07/18 05:00:04;;;;;;;0.20;0.20;;;;;;;;;;5049546;28;20036;-77
2022/07/18 05:02:30;;;;;;;0.20;0.20;;;;;;;;;;5051714;28;20025;-75
2022/07/18 05:04:55;;;;;;;0.20;0.20;;;;;;;;;;5056197;28;20032;-75
2022/07/18 05:07:20;;;;;;;7.00;3.50;;;;;;;;;;5050852;28;20159;-75
2022/07/18 05:09:46;;;;;;;0.25;0.25;;;;;;;;;;5051025;28;20104;-75
2022/07/18 05:12:11;;;;;;;2.47;2.38;;;;;;;;;;5050928;28;20118;-75
2022/07/18 05:14:37;;;;;;;0.35;0.35;;;;;;;;;;5052395;28;20173;-75
2022/07/18 05:17:03;;;;;;;0.20;0.20;;;;;;;;;;5050651;28;20116;-75
2022/07/18 05:19:28;;;;;;;0.20;0.20;;;;;;;;;;5051525;28;20041;-75
2022/07/18 05:21:54;;;;;;;2.28;2.17;;;;;;;;;;5050524;28;20087;-76
2022/07/18 05:24:19;;;;;;;0.20;0.20;;;;;;;;;;5050572;28;20028;-76
2022/07/18 05:26:45;;;;;;;0.20;0.20;;;;;;;;;;5049727;28;20037;-77
2022/07/18 05:29:12;;;;;;;0.20;0.20;;;;;;;;;;5050307;28;20025;-76
2022/07/18 05:31:38;;;;;;;0.30;0.30;;;;;;;;;;5050260;28;20128;-76
2022/07/18 05:34:04;;;;;;;0.30;0.30;;;;;;;;;;5050885;28;20492;-77
2022/07/18 05:36:29;;;;;;;0.30;0.30;;;;;;;;;;5049620;28;20138;-76
2022/07/18 05:38:55;;;;;;;0.30;0.30;;;;;;;;;;5048512;28;20108;-77
2022/07/18 05:41:20;;;;;;;0.60;0.60;;;;;;;;;;5048835;28;20029;-78
2022/07/18 05:43:46;;;;;;;0.43;0.43;;;;;;;;;;5054472;28;20041;-76
2022/07/18 05:46:11;;;;;;;0.22;0.22;;;;;;;;;;5055900;28;20025;-76
2022/07/18 05:48:37;;;;;;;0.25;0.25;;;;;;;;;;5055490;28;20037;-74
2022/07/18 05:51:02;;;;;;;0.20;0.20;;;;;;;;;;5069084;28;20035;-75
2022/07/18 05:53:28;;;;;;;0.30;0.30;;;;;;;;;;5061712;28;20071;-78
2022/07/18 05:55:53;;;;;;;0.30;0.30;;;;;;;;;;5050387;28;20465;-75
2022/07/18 05:58:19;;;;;;;3.85;3.65;;;;;;;;;;5049146;28;20025;-76
2022/07/18 06:00:44;;;;;;;0.30;0.30;;;;;;;;;;5050208;28;20485;-75
2022/07/18 06:03:10;;;;;;;0.70;0.70;;;;;;;;;;5049609;28;20120;-76
2022/07/18 06:05:36;;;;;;;0.40;0.40;;;;;;;;;;5050218;28;20036;-77
2022/07/18 06:08:02;;;;;;;0.40;0.40;;;;;;;;;;5048859;28;20040;-75
2022/07/18 06:10:27;;;;;;;0.40;0.40;;;;;;;;;;5048112;28;20041;-73
2022/07/18 06:12:53;;;;;;;0.30;0.30;;;;;;;;;;5050464;28;20563;-77
2022/07/18 06:15:19;;;;;;;0.50;0.50;;;;;;;;;;5049824;28;20021;-77
2022/07/18 06:17:44;;;;;;;0.40;0.40;;;;;;;;;;5048518;28;20086;-77
2022/07/18 06:20:10;;;;;;;0.40;0.40;;;;;;;;;;5048555;28;20111;-77
2022/07/18 06:22:36;;;;;;;0.30;0.30;;;;;;;;;;5048941;28;20476;-74
2022/07/18 06:25:02;;;;;;;0.30;0.30;;;;;;;;;;5039566;28;20039;-75
2022/07/18 06:27:27;;;;;;;0.40;0.40;;;;;;;;;;5055690;28;20076;-77
2022/07/18 06:29:53;;;;;;;0.30;0.30;;;;;;;;;;5062741;28;20115;-76
2022/07/18 06:32:18;;;;;;;0.30;0.30;;;;;;;;;;5049812;28;20045;-76
2022/07/18 06:34:44;;;;;;;0.50;0.50;;;;;;;;;;5049572;28;20071;-76
2022/07/18 06:37:10;;;;;;;0.40;0.40;;;;;;;;;;5053777;28;20028;-75
2022/07/18 06:39:35;;;;;;;0.30;0.30;;;;;;;;;;5055903;28;20036;-75
2022/07/18 06:42:01;;;;;;;0.77;0.77;;;;;;;;;;5049498;28;20111;-76
2022/07/18 06:44:26;;;;;;;0.40;0.40;;;;;;;;;;5049431;28;20110;-77
2022/07/18 06:46:52;;;;;;;0.40;0.40;;;;;;;;;;5047987;28;20033;-76
2022/07/18 06:49:18;;;;;;;0.60;0.60;;;;;;;;;;5049006;28;20024;-74
2022/07/18 06:51:43;;;;;;;0.50;0.50;;;;;;;;;;5049561;28;20119;-75
2022/07/18 06:54:09;;;;;;;8.38;7.63;;;;;;;;;;5049466;28;20064;-75
2022/07/18 06:56:35;;;;;;;0.57;0.57;;;;;;;;;;5047942;28;20037;-76
2022/07/18 06:59:00;;;;;;;0.40;0.40;;;;;;;;;;5051733;28;20107;-75
2022/07/18 07:01:26;;;;;;;0.30;0.30;;;;;;;;;;5044499;28;20029;-75
2022/07/18 07:03:51;;;;;;;0.50;0.50;;;;;;;;;;5047721;28;20029;-76
2022/07/18 07:06:18;;;;;;;0.50;0.50;;;;;;;;;;5046298;28;20052;-75
2022/07/18 07:08:43;;;;;;;0.50;0.50;;;;;;;;;;5047236;28;20055;-76
2022/07/18 07:11:09;;;;;;;0.45;0.45;;;;;;;;;;5047137;28;20453;-76
2022/07/18 07:13:34;;;;;;;0.40;0.40;;;;;;;;;;5045445;28;20040;-75
2022/07/18 07:16:00;;;;;;;0.50;0.50;;;;;;;;;;5045276;28;20055;-75
2022/07/18 07:18:25;;;;;;;0.38;0.38;;;;;;;;;;5046543;28;20025;-74
2022/07/18 07:20:51;;;;;;;0.73;0.73;;;;;;;;;;5046344;28;20033;-77
2022/07/18 07:23:16;;;;;;;0.40;0.40;;;;;;;;;;5049329;28;20124;-77
2022/07/18 07:25:42;;;;;;;0.40;0.40;;;;;;;;;;5049027;28;20084;-77
2022/07/18 07:28:07;;;;;;;1.80;1.70;;;;;;;;;;5050029;28;20037;-76
2022/07/18 07:30:33;;;;;;;0.50;0.50;;;;;;;;;;5050784;28;20036;-77
2022/07/18 07:32:59;;;;;;;0.57;0.57;;;;;;;;;;5049359;28;20441;-77
2022/07/18 07:35:25;;;;;;;0.50;0.50;;;;;;;;;;5048533;28;20033;-76
2022/07/18 07:37:52;;;;;;;0.55;0.55;;;;;;;;;;5050255;28;20028;-76
2022/07/18 07:40:18;;;;;;;0.70;0.70;;;;;;;;;;5049787;28;20481;-75
2022/07/18 07:42:44;;;;;;;0.60;0.60;;;;;;;;;;5050245;28;20107;-75
2022/07/18 07:45:10;;;;;;;0.50;0.50;;;;;;;;;;5050279;28;20066;-76
2022/07/18 07:47:36;;;;;;;0.70;0.70;;;;;;;;;;5050672;28;20096;-76
2022/07/18 07:50:03;;;;;;;0.60;0.60;;;;;;;;;;5052889;28;20037;-76
2022/07/18 07:52:30;;;;;;;0.55;0.55;;;;;;;;;;5052663;28;20380;-76
2022/07/18 07:54:55;;;;;;;0.73;0.73;;;;;;;;;;5052078;28;20074;-75
2022/07/18 07:57:21;;;;;;;0.40;0.40;;;;;;;;;;5052334;28;20078;-75
2022/07/18 07:59:46;;;;;;;0.50;0.50;;;;;;;;;;5052658;28;20037;-75
2022/07/18 08:02:12;;;;;;;0.60;0.60;;;;;;;;;;5052595;28;20028;-75
2022/07/18 08:04:37;;;;;;;0.60;0.60;;;;;;;;;;5063731;28;20608;-76
2022/07/18 08:07:03;;;;;;;1.20;0.88;;;;;;;;;;5063094;28;20035;-75
2022/07/18 08:09:28;;;;;;;0.60;0.60;;;;;;;;;;5057820;28;20418;-75
2022/07/18 08:11:54;;;;;;;0.50;0.50;;;;;;;;;;5052676;28;20021;-75
2022/07/18 08:14:19;;;;;;;0.50;0.50;;;;;;;;;;5051447;28;20037;-76
2022/07/18 08:16:45;;;;;;;0.70;0.70;;;;;;;;;;5052449;28;20025;-76
2022/07/18 08:19:10;;;;;;;0.50;0.50;;;;;;;;;;5051812;28;20044;-76
2022/07/18 08:21:36;;;;;;;0.60;0.60;;;;;;;;;;5052717;28;20101;-76
2022/07/18 08:24:01;;;;;;;0.57;0.57;;;;;;;;;;5052495;28;20060;-76
2022/07/18 08:26:26;;;;;;;1.40;1.30;;;;;;;;;;5052694;28;20052;-77
2022/07/18 08:28:52;;;;;;;0.50;0.50;;;;;;;;;;5052212;28;20116;-77
2022/07/18 08:31:18;;;;;;;0.73;0.73;;;;;;;;;;5052080;28;20134;-77
2022/07/18 08:33:44;;;;;;;0.40;0.40;;;;;;;;;;5051311;28;20048;-76
2022/07/18 08:36:09;;;;;;;1.83;1.25;;;;;;;;;;5048466;28;20037;-77
2022/07/18 08:38:35;;;;;;;0.60;0.60;;;;;;;;;;5045945;28;20048;-76
2022/07/18 08:41:01;;;;;;;0.60;0.60;;;;;;;;;;5047933;28;20029;-76
2022/07/18 08:43:27;;;;;;;1.02;0.85;;;;;;;;;;5050292;28;20122;-76
2022/07/18 08:45:56;;;;;;;0.77;0.77;;;;;;;;;;5050516;28;20079;-75
2022/07/18 08:48:21;;;;;;;2.08;1.20;;;;;;;;;;5032611;28;20482;-76
2022/07/18 08:50:47;;;;;;;0.55;0.55;;;;;;;;;;5051927;28;20039;-76
2022/07/18 08:53:13;;;;;;;0.80;0.80;;;;;;;;;;5050943;28;20072;-76
2022/07/18 08:55:39;;;;;;;0.60;0.60;;;;;;;;;;5050082;28;20091;-76
2022/07/18 08:58:04;;;;;;;1.42;1.33;;;;;;;;;;5053986;28;20029;-76
2022/07/18 09:00:30;;;;;;;0.95;0.88;;;;;;;;;;5048368;28;20025;-76
2022/07/18 09:02:58;;;;;;;1.85;1.08;;;;;;;;;;5029604;28;20484;-75
2022/07/18 09:05:24;;;;;;;;;;;;;;;;;;5050563;28;20041;-76
2022/07/18 09:07:49;;;;;;;6.43;1.17;;;;;;;;;;5051193;28;19916;-75
2022/07/18 09:10:16;;;;;;;0.82;0.80;;;;;;;;;;5048358;28;20280;-76
2022/07/18 09:12:55;;;;;;;0.50;0.50;;;;;;;;;;5037695;28;20032;-76
2022/07/18 09:15:21;;;;;;;1.02;1.02;;;;;;;;;;5028809;28;20384;-76
2022/07/18 09:17:48;;;;;;;0.73;0.73;;;;;;;;;;5028032;28;20101;-76
2022/07/18 09:20:15;;;;;;;0.77;0.77;;;;;;;;;;5039014;28;20247;-76
2022/07/18 09:22:42;;;;;;;0.77;0.77;;;;;;;;;;5049009;28;20043;-76
2022/07/18 09:25:09;;;;;;;0.50;0.50;;;;;;;;;;5049207;28;20047;-75
2022/07/18 09:27:40;;;;;;;0.52;0.52;;;;;;;;;;5039894;28;20098;-76
2022/07/18 09:30:06;;;;;;;0.75;0.75;;;;;;;;;;5037963;28;20496;-75
2022/07/18 09:32:33;;;;;;;1.27;1.17;;;;;;;;;;5041297;28;20045;-76
2022/07/18 09:35:05;;;;;;;1.30;1.20;;;;;;;;;;5030642;28;20059;-75
2022/07/18 09:37:31;;;;;;;0.50;0.50;;;;;;;;;;5043995;28;20522;-75
2022/07/18 09:40:26;;;;;;;1.38;1.17;;;;;;;;;;5047384;28;20061;-76
2022/07/18 09:42:55;;;;;;;1.48;1.38;;;;;;;;;;5018203;28;20045;-76
2022/07/18 09:45:21;;;;;;;5.97;4.43;;;;;;;;;;5048130;28;20032;-76
2022/07/18 09:47:51;;;;;;;0.90;0.90;;;;;;;;;;5046976;28;20102;-76
2022/07/18 09:50:22;;;;;;;2.63;1.85;;;;;;;;;;5048455;28;20041;-77
2022/07/18 09:53:01;;;;;;;0.93;0.90;;;;;;;;;;5047099;28;20086;-76
2022/07/18 09:55:27;;;;;;;2.92;1.65;;;;;;;;;;5048602;28;20040;-76
2022/07/18 09:57:58;;;;;;;1.50;1.35;;;;;;;;;;5048506;28;20480;-76
2022/07/18 10:00:23;;;;;;;0.80;0.80;;;;;;;;;;5048864;28;20043;-76
2022/07/18 10:02:49;;;;;;;1.15;1.05;;;;;;;;;;5047736;28;20103;-75
2022/07/18 10:05:14;;;;;;;4.03;1.75;;;;;;;;;;5047765;28;20029;-76
2022/07/18 10:07:39;;;;;;;1.10;1.00;;;;;;;;;;5041535;28;20033;-75
2022/07/18 10:10:05;;;;;;;1.15;0.82;;;;;;;;;;5038456;28;20022;-76
2022/07/18 10:12:31;;;;;;;1.00;0.90;;;;;;;;;;5037703;28;20296;-74
2022/07/18 10:14:56;;;;;;;0.90;0.90;;;;;;;;;;5036803;28;20495;-74
2022/07/18 10:17:23;;;;;;;1.95;0.88;;;;;;;;;;5034448;28;20033;-76
2022/07/18 10:19:48;;;;;;;1.23;1.13;;;;;;;;;;5043030;28;20033;-77
2022/07/18 10:22:14;;;;;;;4.90;1.52;;;;;;;;;;5035552;28;20033;-77
2022/07/18 10:24:40;;;;;;;0.70;0.70;;;;;;;;;;5028110;28;20119;-77
2022/07/18 10:27:19;;;;;;;1.90;1.33;;;;;;;;;;5026962;28;20025;-75
2022/07/18 10:30:03;;;;;;;4.70;1.80;;;;;;;;;;5038823;28;20034;-75
2022/07/18 10:32:33;;;;;;;1.95;1.05;;;;;;;;;;5032749;28;20056;-76
2022/07/18 10:34:58;;;;;;;5.25;3.25;;;;;;;;;;5047118;28;20734;-75
2022/07/18 10:37:24;;;;;;;1.52;1.15;;;;;;;;;;5052706;28;20131;-75
2022/07/18 10:39:50;;;;;;;5.57;2.65;;;;;;;;;;5046480;28;20037;-77
2022/07/18 10:42:18;;;;;;;2.50;1.85;;;;;;;;;;5047626;28;20468;-77
2022/07/18 10:44:44;;;;;;;1.48;1.38;;;;;;;;;;5046324;28;20047;-76
2022/07/18 10:47:24;;;;;;;0.65;0.65;;;;;;;;;;5043487;28;20033;-76
2022/07/18 10:49:50;;;;;;;3.45;2.30;;;;;;;;;;5037132;28;20520;-77
2022/07/18 10:52:25;;;;;;;1.08;0.98;;;;;;;;;;5041255;28;20082;-73
2022/07/18 10:55:02;;;;;;;0.93;0.90;;;;;;;;;;5046212;28;20033;-76
2022/07/18 10:57:28;;;;;;;0.60;0.60;;;;;;;;;;5045306;28;20120;-76
2022/07/18 11:00:14;;;;;;;1.85;1.58;;;;;;;;;;5037860;28;20189;-75
2022/07/18 11:02:47;;;;;;;0.98;0.93;;;;;;;;;;5036217;28;20028;-75
2022/07/18 11:05:24;;;;;;;3.65;2.05;;;;;;;;;;5045627;28;20044;-77
2022/07/18 11:08:02;;;;;;;5.28;1.35;;;;;;;;;;5044310;28;20025;-77
2022/07/18 11:13:32;;;;;;;1.02;0.93;;;;;;;;;;5057058;28;20095;-76
2022/07/18 11:15:58;;;;;;;0.70;0.70;;;;;;;;;;5031915;28;20357;-76
2022/07/18 11:18:24;;;;;;;1.42;1.33;;;;;;;;;;5046449;28;20112;-76
2022/07/18 11:20:50;;;;;;;2.25;1.63;;;;;;;;;;5046766;28;20029;-76
2022/07/18 11:23:23;;;;;;;1.80;1.40;;;;;;;;;;5046560;28;20036;-76
2022/07/18 11:25:50;;;;;;;0.60;0.60;;;;;;;;;;5047001;28;20025;-76
2022/07/18 11:28:16;;;;;;;1.50;1.38;;;;;;;;;;5041955;28;20068;-75
2022/07/18 11:30:42;;;;;;;1.63;1.48;;;;;;;;;;5025386;28;20413;-75
2022/07/18 11:33:21;;;;;;;1.90;1.40;;;;;;;;;;5025249;28;20107;-76
2022/07/18 11:35:46;;;;;;;1.45;1.35;;;;;;;;;;5026005;28;20128;-77
2022/07/18 11:38:12;;;;;;;1.13;0.93;;;;;;;;;;5026980;28;20288;-75
2022/07/18 11:40:47;;;;;;;1.80;1.60;;;;;;;;;;5026119;28;20063;-76
2022/07/18 11:43:18;;;;;;;1.15;0.80;;;;;;;;;;5028584;28;20036;-76
2022/07/18 11:45:44;;;;;;;1.13;1.02;;;;;;;;;;5045583;28;20476;-76
2022/07/18 11:48:09;;;;;;;3.80;2.55;;;;;;;;;;5044824;28;20033;-76
2022/07/18 11:50:36;;;;;;;1.35;1.25;;;;;;;;;;5043311;28;20057;-76
2022/07/18 11:53:02;;;;;;;2.03;1.73;;;;;;;;;;5035304;28;20137;-75
2022/07/18 11:55:34;;;;;;;7.93;2.03;;;;;;;;;;5027413;28;20464;-76
2022/07/18 11:58:09;;;;;;;1.73;1.23;;;;;;;;;;5028825;28;20050;-75
2022/07/18 12:00:35;;;;;;;0.70;0.70;;;;;;;;;;5046560;28;20468;-75
2022/07/18 12:03:01;;;;;;;0.98;0.98;;;;;;;;;;5044587;28;20033;-74
2022/07/18 12:05:31;;;;;;;1.20;0.90;;;;;;;;;;5045173;28;20071;-76
2022/07/18 12:07:57;;;;;;;1.30;1.05;;;;;;;;;;5043959;28;20048;-76
2022/07/18 12:10:22;;;;;;;1.10;1.00;;;;;;;;;;5048864;28;20060;-76
2022/07/18 12:12:48;;;;;;;0.60;0.60;;;;;;;;;;5050142;28;20112;-75
2022/07/18 12:15:13;;;;;;;1.13;1.02;;;;;;;;;;5048590;28;20087;-75
2022/07/18 12:17:44;;;;;;;2.47;1.60;;;;;;;;;;5051715;28;20029;-76
2022/07/18 12:20:09;;;;;;;1.52;1.40;;;;;;;;;;5052556;28;20037;-74
2022/07/18 12:22:35;;;;;;;2.45;1.92;;;;;;;;;;5050005;28;20031;-77
2022/07/18 12:25:00;;;;;;;1.27;1.17;;;;;;;;;;5049619;28;20049;-77
2022/07/18 12:27:34;;;;;;;0.60;0.60;;;;;;;;;;5048706;28;20033;-77
2022/07/18 12:30:08;;;;;;;2.25;1.55;;;;;;;;;;5042051;28;20037;-77
2022/07/18 12:32:47;;;;;;;1.65;0.77;;;;;;;;;;5049646;28;20052;-76
2022/07/18 12:35:20;;;;;;;1.17;1.05;;;;;;;;;;5044226;28;20037;-76
2022/07/18 12:37:53;;;;;;;1.52;1.27;;;;;;;;;;5041171;28;20029;-77
2022/07/18 12:40:19;;;;;;;1.92;1.45;;;;;;;;;;5047531;28;20041;-77
2022/07/18 12:42:44;;;;;;;3.38;2.10;;;;;;;;;;5042216;28;20364;-76
2022/07/18 12:45:10;;;;;;;2.15;1.23;;;;;;;;;;5040986;28;20036;-77
2022/07/18 12:47:36;;;;;;;0.80;0.80;;;;;;;;;;5047068;28;20103;-76
2022/07/18 12:50:03;;;;;;;1.10;0.90;;;;;;;;;;5040491;28;20025;-76
2022/07/18 12:52:28;;;;;;;2.75;1.58;;;;;;;;;;5048919;28;20500;-75
2022/07/18 12:54:53;;;;;;;0.90;0.88;;;;;;;;;;5049009;28;20025;-76
2022/07/18 12:57:19;;;;;;;1.95;1.40;;;;;;;;;;5049381;28;20473;-76
2022/07/18 12:59:45;;;;;;;0.85;0.82;;;;;;;;;;5048978;28;20031;-77
2022/07/18 13:02:11;;;;;;;0.88;0.85;;;;;;;;;;5048778;28;20035;-76
2022/07/18 13:04:37;;;;;;;1.00;0.90;;;;;;;;;;5047343;28;20076;-76
2022/07/18 13:07:05;;;;;;;0.75;0.75;;;;;;;;;;5054403;28;20067;-75
2022/07/18 13:09:30;;;;;;;1.25;1.15;;;;;;;;;;5044762;28;20068;-75
2022/07/18 13:11:56;;;;;;;4.30;1.98;;;;;;;;;;5045260;28;20379;-71
2022/07/18 13:14:21;;;;;;;4.57;1.00;;;;;;;;;;5044620;28;20044;-75
2022/07/18 13:16:49;;;;;;;3.90;2.53;;;;;;;;;;5039687;28;20025;-72
2022/07/18 13:19:15;;;;;;;0.70;0.70;;;;;;;;;;5034435;28;20017;-73
2022/07/18 13:21:41;;;;;;;1.48;0.98;;;;;;;;;;5034031;28;20079;-75
2022/07/18 13:24:06;;;;;;;3.40;1.42;;;;;;;;;;5028583;28;20481;-72
2022/07/18 13:26:32;;;;;;;0.73;0.73;;;;;;;;;;5037550;28;20018;-73
2022/07/18 13:28:57;;;;;;;1.30;1.20;;;;;;;;;;5035198;28;20038;-70
2022/07/18 13:31:22;;;;;;;0.60;0.60;;;;;;;;;;5037258;28;20108;-71
2022/07/18 13:33:50;;;;;;;3.35;1.50;;;;;;;;;;5030676;28;20072;-70
2022/07/18 13:36:16;;;;;;;1.85;1.67;;;;;;;;;;5032010;28;20381;-71
2022/07/18 13:38:41;;;;;;;0.50;0.50;;;;;;;;;;5050301;28;20028;-72
2022/07/18 13:41:07;;;;;;;2.80;1.17;;;;;;;;;;5046814;28;20040;-71
2022/07/18 13:43:32;;;;;;;1.25;1.15;;;;;;;;;;5046062;28;20032;-71
2022/07/18 13:45:57;;;;;;;1.45;0.88;;;;;;;;;;5048690;28;20059;-70
2022/07/18 13:48:23;;;;;;;2.60;1.90;;;;;;;;;;5046821;28;20515;-71
2022/07/18 13:50:48;;;;;;;0.80;0.77;;;;;;;;;;5048536;28;20419;-74
2022/07/18 13:53:14;;;;;;;1.15;1.13;;;;;;;;;;5048181;28;20039;-72
2022/07/18 13:55:39;;;;;;;1.13;1.02;;;;;;;;;;5048271;28;20052;-72
2022/07/18 13:58:05;;;;;;;0.40;0.40;;;;;;;;;;5047941;28;20141;-74
2022/07/18 14:00:30;;;;;;;1.17;1.10;;;;;;;;;;5048113;28;20060;-73
2022/07/18 14:02:55;;;;;;;1.70;1.58;;;;;;;;;;5046573;28;20545;-73
2022/07/18 14:05:21;;;;;;;0.80;0.80;;;;;;;;;;5047918;28;20531;-71
2022/07/18 14:07:48;;;;;;;1.05;1.00;;;;;;;;;;5048609;28;20094;-71
2022/07/18 14:10:14;;;;;;;2.33;1.48;;;;;;;;;;5048372;28;20040;-71
2022/07/18 14:12:39;;;;;;;2.25;1.63;;;;;;;;;;5049894;28;20059;-72
2022/07/18 14:15:05;;;;;;;4.97;1.60;;;;;;;;;;5049382;28;20484;-74
2022/07/18 14:17:32;;;;;;;1.90;1.50;;;;;;;;;;5048591;28;20167;-71
2022/07/18 14:19:58;;;;;;;1.63;1.38;;;;;;;;;;5050232;28;20471;-71
2022/07/18 14:22:24;;;;;;;1.65;1.50;;;;;;;;;;5049753;28;20033;-72
2022/07/18 14:24:49;;;;;;;2.35;1.52;;;;;;;;;;5049551;28;20387;-70
2022/07/18 14:27:15;;;;;;;2.45;1.17;;;;;;;;;;5048451;28;20468;-72
2022/07/18 14:29:40;;;;;;;0.77;0.77;;;;;;;;;;5049833;28;20055;-72
2022/07/18 14:32:06;;;;;;;2.10;1.45;;;;;;;;;;5044646;28;20989;-70
2022/07/18 14:34:31;;;;;;;0.52;0.52;;;;;;;;;;5038078;28;20027;-72
2022/07/18 14:36:57;;;;;;;1.40;1.30;;;;;;;;;;5045683;28;20060;-70
2022/07/18 14:39:22;;;;;;;3.17;1.17;;;;;;;;;;5048302;28;20031;-71
2022/07/18 14:41:48;;;;;;;1.77;1.50;;;;;;;;;;5047837;28;20029;-71